createdAt,value
2019-01-12T00:03:15.095Z,0.83
2019-01-12T00:08:18.570Z,0.50
2019-01-12T00:13:22.036Z,0.80
2019-01-12T00:18:25.499Z,1.03
2019-01-12T00:23:28.968Z,0.93
2019-01-12T00:28:32.431Z,0.43
2019-01-12T00:33:35.894Z,0.97
2019-01-12T00:38:39.368Z,0.65
2019-01-12T00:43:42.838Z,1.33
2019-01-12T00:48:46.316Z,1.50
2019-01-12T00:53:49.783Z,0.60
2019-01-12T00:58:53.249Z,0.97
2019-01-12T01:03:56.982Z,1.00
2019-01-12T01:09:00.446Z,1.33
2019-01-12T01:14:04.227Z,0.60
2019-01-12T01:19:07.645Z,1.13
2019-01-12T01:24:11.105Z,1.13
2019-01-12T01:29:14.570Z,0.97
2019-01-12T01:34:18.042Z,1.00
2019-01-12T01:39:21.508Z,0.90
2019-01-12T01:44:24.976Z,0.90
2019-01-12T01:49:28.456Z,0.80
2019-01-12T01:54:31.924Z,0.97
2019-01-12T01:59:35.391Z,1.07
2019-01-12T02:04:38.872Z,1.37
2019-01-12T02:09:42.341Z,0.63
2019-01-12T02:14:45.886Z,1.47
2019-01-12T02:19:49.354Z,1.00
2019-01-12T02:24:59.750Z,0.63
2019-01-12T02:29:58.011Z,2.00
2019-01-12T02:35:01.484Z,1.63
2019-01-12T02:40:07.680Z,0.65
2019-01-12T02:45:13.184Z,1.13
2019-01-12T02:50:16.651Z,0.93
2019-01-12T02:55:20.122Z,0.90
2019-01-12T03:00:23.630Z,0.50
2019-01-12T03:05:27.093Z,0.60
2019-01-12T03:10:30.590Z,0.78
2019-01-12T03:15:34.085Z,1.00
2019-01-12T03:20:37.604Z,1.13
2019-01-12T03:25:41.085Z,1.47
2019-01-12T03:30:44.569Z,0.60
2019-01-12T03:35:48.058Z,0.80
2019-01-12T03:40:51.553Z,1.17
2019-01-12T03:45:55.091Z,1.83
2019-01-12T03:50:58.573Z,0.60
2019-01-12T03:56:02.060Z,1.13
2019-01-12T04:01:05.610Z,1.50
2019-01-12T04:06:09.095Z,0.70
2019-01-12T04:11:12.586Z,1.67
2019-01-12T04:16:16.059Z,1.63
2019-01-12T04:21:19.543Z,0.82
2019-01-12T04:26:23.029Z,1.17
2019-01-12T04:31:26.509Z,1.20
2019-01-12T04:36:29.995Z,1.12
2019-01-12T04:41:33.485Z,1.17
2019-01-12T04:46:36.967Z,1.05
2019-01-12T04:51:40.449Z,0.83
2019-01-12T04:56:43.932Z,1.95
2019-01-12T05:01:47.411Z,0.60
2019-01-12T05:06:50.895Z,0.80
2019-01-12T05:11:54.375Z,1.33
2019-01-12T05:16:57.857Z,1.87
2019-01-12T05:22:01.339Z,1.63
2019-01-12T05:27:04.998Z,0.80
2019-01-12T05:32:08.482Z,0.90
2019-01-12T05:37:11.960Z,1.10
2019-01-12T05:42:15.443Z,1.35
2019-01-12T05:47:18.927Z,1.10
2019-01-12T05:52:22.417Z,1.32
2019-01-12T05:57:25.900Z,1.10
2019-01-12T06:02:29.380Z,1.23
2019-01-12T06:07:32.859Z,1.20
2019-01-12T06:12:36.342Z,0.80
2019-01-12T06:17:39.822Z,0.77
2019-01-12T06:22:43.469Z,1.90
2019-01-12T06:27:46.954Z,0.47
2019-01-12T06:32:50.435Z,0.90
2019-01-12T06:37:53.923Z,0.97
2019-01-12T06:42:57.410Z,1.37
2019-01-12T06:48:00.931Z,0.63
2019-01-12T06:53:04.416Z,1.00
2019-01-12T06:58:07.901Z,1.13
2019-01-12T07:03:11.382Z,1.13
2019-01-12T07:08:14.866Z,0.73
2019-01-12T07:13:18.349Z,1.63
2019-01-12T07:18:21.831Z,1.27
2019-01-12T07:23:25.315Z,0.87
2019-01-12T07:28:28.794Z,1.40
2019-01-12T07:33:32.278Z,0.90
2019-01-12T07:38:35.760Z,1.30
2019-01-12T07:43:39.245Z,0.97
2019-01-12T07:48:42.730Z,1.33
2019-01-12T07:53:46.211Z,0.40
2019-01-12T07:58:49.692Z,1.43
2019-01-12T08:03:53.249Z,0.73
2019-01-12T08:08:56.732Z,2.55
2019-01-12T08:14:00.200Z,3.43
2019-01-12T08:19:03.667Z,6.83
2019-01-12T08:24:07.131Z,4.13
2019-01-12T08:29:10.602Z,2.80
2019-01-12T08:34:14.069Z,4.40
2019-01-12T08:39:17.531Z,3.83
2019-01-12T08:44:20.999Z,2.42
2019-01-12T08:49:24.467Z,2.40
2019-01-12T08:54:27.932Z,3.03
2019-01-12T08:59:31.404Z,3.77
2019-01-12T09:04:43.254Z,2.83
2019-01-12T09:09:40.062Z,2.53
2019-01-12T09:14:43.527Z,4.10
2019-01-12T09:19:46.997Z,1.87
2019-01-12T09:24:50.461Z,2.43
2019-01-12T09:29:53.923Z,3.37
2019-01-12T09:34:57.387Z,3.10
2019-01-12T09:40:00.856Z,1.73
2019-01-12T09:45:06.359Z,2.27
2019-01-12T09:50:12.767Z,4.50
2019-01-12T09:55:16.241Z,1.53
2019-01-12T10:00:22.034Z,2.77
2019-01-12T10:05:25.870Z,1.35
2019-01-12T10:10:29.334Z,1.47
2019-01-12T10:15:32.799Z,3.40
2019-01-12T10:20:36.267Z,1.83
2019-01-12T10:25:39.736Z,1.77
2019-01-12T10:30:43.197Z,1.37
2019-01-12T10:35:46.663Z,1.57
2019-01-12T10:40:50.127Z,1.60
2019-01-12T10:45:53.596Z,2.23
2019-01-12T10:50:57.058Z,1.37
2019-01-12T10:56:00.523Z,1.40
2019-01-12T11:01:04.358Z,1.40
2019-01-12T11:06:07.996Z,1.40
2019-01-12T11:11:11.470Z,0.93
2019-01-12T11:16:15.014Z,3.15
2019-01-12T11:21:18.475Z,9.58
2019-01-12T11:26:21.946Z,13.83
2019-01-12T11:31:25.416Z,24.27
2019-01-12T11:36:28.891Z,27.00
2019-01-12T11:41:32.361Z,52.90
2019-01-12T11:46:35.833Z,50.30
2019-01-12T11:51:39.303Z,48.50
2019-01-12T11:56:42.771Z,40.98
2019-01-12T12:01:46.240Z,34.55
2019-01-12T12:06:49.713Z,28.33
2019-01-12T12:11:53.188Z,26.17
2019-01-12T12:16:56.657Z,22.77
2019-01-12T12:22:00.130Z,22.02
2019-01-12T12:27:05.130Z,20.60
2019-01-12T12:32:08.818Z,20.53
2019-01-12T12:37:12.295Z,21.48
2019-01-12T12:42:15.764Z,16.32
2019-01-12T12:47:19.232Z,15.05
2019-01-12T12:52:22.694Z,18.60
2019-01-12T12:57:32.726Z,14.97
2019-01-12T13:02:31.355Z,15.00
2019-01-12T13:07:34.818Z,13.50
2019-01-12T13:12:38.280Z,14.93
2019-01-12T13:17:41.746Z,15.58
2019-01-12T13:22:45.846Z,13.40
2019-01-12T13:27:49.317Z,13.53
2019-01-12T13:32:52.949Z,10.57
2019-01-12T13:37:56.584Z,9.75
2019-01-12T13:43:00.047Z,16.77
2019-01-12T13:48:03.583Z,10.27
2019-01-12T13:53:07.054Z,12.93
2019-01-12T13:58:10.518Z,11.50
2019-01-12T14:03:13.983Z,11.45
2019-01-12T14:08:17.447Z,11.45
2019-01-12T14:13:20.913Z,9.93
2019-01-12T14:18:24.374Z,10.48
2019-01-12T14:23:27.839Z,9.40
2019-01-12T14:28:31.298Z,11.38
2019-01-12T14:33:34.764Z,10.87
2019-01-12T14:38:38.220Z,7.63
2019-01-12T14:43:41.687Z,9.53
2019-01-12T14:48:45.151Z,9.43
2019-01-12T14:53:48.622Z,7.95
2019-01-12T14:58:52.094Z,6.83
2019-01-12T15:03:55.546Z,6.03
2019-01-12T15:08:58.999Z,7.97
2019-01-12T15:14:02.458Z,7.50
2019-01-12T15:19:05.919Z,7.03
2019-01-12T15:24:10.243Z,8.37
2019-01-12T15:29:13.716Z,6.00
2019-01-12T15:34:17.173Z,7.20
2019-01-12T15:39:20.636Z,6.23
2019-01-12T15:44:24.097Z,5.78
2019-01-12T15:49:27.555Z,8.63
2019-01-12T15:54:31.013Z,4.75
2019-01-12T15:59:34.473Z,5.92
2019-01-12T16:04:37.940Z,5.97
2019-01-12T16:09:41.406Z,6.72
2019-01-12T16:14:44.871Z,6.13
2019-01-12T16:19:48.337Z,6.23
2019-01-12T16:24:51.796Z,4.95
2019-01-12T16:29:55.258Z,7.33
2019-01-12T16:34:58.729Z,5.20
2019-01-12T16:40:02.186Z,5.10
2019-01-12T16:45:10.263Z,5.04
2019-01-12T16:50:13.856Z,4.23
2019-01-12T16:55:18.359Z,6.23
2019-01-12T17:00:27.129Z,3.87
2019-01-12T17:05:30.598Z,2.47
2019-01-12T17:10:34.059Z,2.80
2019-01-12T17:15:37.519Z,3.50
2019-01-12T17:20:40.986Z,3.20
2019-01-12T17:25:44.452Z,1.67
2019-01-12T17:30:47.911Z,1.97
2019-01-12T17:35:51.541Z,2.80
2019-01-12T17:40:55.003Z,4.83
2019-01-12T17:45:58.465Z,3.60
2019-01-12T17:51:01.926Z,3.07
2019-01-12T17:56:05.384Z,2.80
2019-01-12T18:01:08.847Z,6.35
2019-01-12T18:06:13.722Z,4.83
2019-01-12T18:11:17.244Z,5.43
2019-01-12T18:16:20.707Z,1.93
2019-01-12T18:21:24.170Z,1.90
2019-01-12T18:26:27.638Z,2.72
2019-01-12T18:31:31.094Z,2.43
2019-01-12T18:36:34.553Z,1.60
2019-01-12T18:41:38.013Z,2.20
2019-01-12T18:46:41.474Z,1.90
2019-01-12T18:51:44.938Z,1.90
2019-01-12T18:56:48.402Z,2.85
2019-01-12T19:01:51.866Z,1.60
2019-01-12T19:06:55.333Z,2.47
2019-01-12T19:11:58.795Z,1.93
2019-01-12T19:17:02.285Z,1.85
2019-01-12T19:22:06.659Z,1.50
2019-01-12T19:27:10.247Z,1.82
2019-01-12T19:32:13.718Z,2.65
2019-01-12T19:37:17.177Z,1.70
2019-01-12T19:42:20.645Z,1.70
2019-01-12T19:47:24.117Z,1.83
2019-01-12T19:52:27.578Z,1.40
2019-01-12T19:57:31.036Z,1.50
2019-01-12T20:02:34.493Z,1.40
2019-01-12T20:07:37.953Z,1.82
2019-01-12T20:12:41.414Z,1.50
2019-01-12T20:17:45.053Z,2.10
2019-01-12T20:22:50.177Z,1.77
2019-01-12T20:27:53.832Z,1.37
2019-01-12T20:33:19.641Z,1.77
2019-01-12T20:38:49.658Z,2.25
2019-01-12T20:44:01.712Z,1.47
2019-01-12T20:49:08.222Z,1.40
2019-01-12T20:54:31.066Z,2.00
2019-01-12T20:59:55.434Z,1.97
2019-01-12T21:05:04.516Z,0.93
2019-01-12T21:10:32.205Z,1.20
2019-01-12T21:15:38.827Z,1.85
2019-01-12T21:20:42.305Z,1.10
2019-01-12T21:25:45.781Z,1.52
2019-01-12T21:30:49.256Z,1.23
2019-01-12T21:35:52.756Z,1.23
2019-01-12T21:40:56.219Z,1.27
2019-01-12T21:45:59.697Z,1.50
2019-01-12T21:51:04.217Z,1.17
2019-01-12T21:56:07.768Z,1.20
2019-01-12T22:01:11.920Z,2.00
2019-01-12T22:06:15.472Z,0.80
2019-01-12T22:11:18.949Z,0.90
2019-01-12T22:16:22.499Z,1.15
2019-01-12T22:21:25.979Z,0.87
2019-01-12T22:26:29.464Z,1.40
2019-01-12T22:31:32.948Z,1.10
2019-01-12T22:36:36.431Z,0.57
2019-01-12T22:41:39.924Z,0.82
2019-01-12T22:46:43.397Z,1.53
2019-01-12T22:51:46.879Z,1.60
2019-01-12T22:56:50.355Z,1.30
2019-01-12T23:01:54.371Z,0.70
2019-01-12T23:06:57.849Z,1.00
2019-01-12T23:12:01.351Z,0.60
2019-01-12T23:17:05.274Z,1.17
2019-01-12T23:22:08.760Z,1.90
2019-01-12T23:27:12.248Z,1.10
2019-01-12T23:32:15.728Z,0.72
2019-01-12T23:37:19.204Z,0.70
2019-01-12T23:42:22.756Z,0.45
2019-01-12T23:47:26.237Z,0.73
2019-01-12T23:52:29.712Z,0.83
2019-01-12T23:57:33.191Z,0.53
